sensor_id;sensor_type;location;lat;lon;timestamp;P1;durP1;ratioP1;P2;durP2;ratioP2
41627;SDS011;27321;50.816;6.054;2022-11-20T00:00:38;18.65;;;11.88;;
41627;SDS011;27321;50.816;6.054;2022-11-20T00:04:22;21.40;;;12.70;;
41627;SDS011;27321;50.816;6.054;2022-11-20T00:08:05;21.05;;;12.57;;
41627;SDS011;27321;50.816;6.054;2022-11-20T00:11:52;26.13;;;13.77;;
41627;SDS011;27321;50.816;6.054;2022-11-20T00:15:34;24.67;;;14.05;;
41627;SDS011;27321;50.816;6.054;2022-11-20T00:19:16;24.55;;;13.98;;
41627;SDS011;27321;50.816;6.054;2022-11-20T00:23:03;23.23;;;13.00;;
41627;SDS011;27321;50.816;6.054;2022-11-20T00:26:45;23.38;;;13.10;;
41627;SDS011;27321;50.816;6.054;2022-11-20T00:30:14;25.13;;;13.37;;
41627;SDS011;27321;50.816;6.054;2022-11-20T00:33:56;21.17;;;12.50;;
41627;SDS011;27321;50.816;6.054;2022-11-20T00:37:38;22.73;;;13.95;;
41627;SDS011;27321;50.816;6.054;2022-11-20T00:41:20;23.35;;;13.63;;
41627;SDS011;27321;50.816;6.054;2022-11-20T00:45:03;20.67;;;12.10;;
41627;SDS011;27321;50.816;6.054;2022-11-20T00:48:15;23.77;;;14.17;;
41627;SDS011;27321;50.816;6.054;2022-11-20T00:52:13;24.87;;;13.93;;
41627;SDS011;27321;50.816;6.054;2022-11-20T01:00:43;22.10;;;13.83;;
41627;SDS011;27321;50.816;6.054;2022-11-20T01:04:42;24.23;;;12.80;;
41627;SDS011;27321;50.816;6.054;2022-11-20T01:08:32;22.23;;;13.10;;
41627;SDS011;27321;50.816;6.054;2022-11-20T01:12:20;21.23;;;13.00;;
41627;SDS011;27321;50.816;6.054;2022-11-20T01:16:36;26.17;;;13.47;;
41627;SDS011;27321;50.816;6.054;2022-11-20T01:20:36;22.13;;;13.17;;
41627;SDS011;27321;50.816;6.054;2022-11-20T01:24:37;23.57;;;13.00;;
41627;SDS011;27321;50.816;6.054;2022-11-20T01:28:05;23.60;;;13.73;;
41627;SDS011;27321;50.816;6.054;2022-11-20T01:31:50;26.73;;;14.23;;
41627;SDS011;27321;50.816;6.054;2022-11-20T01:35:40;23.60;;;13.60;;
41627;SDS011;27321;50.816;6.054;2022-11-20T01:39:24;22.33;;;12.27;;
41627;SDS011;27321;50.816;6.054;2022-11-20T01:43:20;19.40;;;12.67;;
41627;SDS011;27321;50.816;6.054;2022-11-20T01:47:06;18.00;;;11.80;;
41627;SDS011;27321;50.816;6.054;2022-11-20T01:50:49;20.17;;;12.73;;
41627;SDS011;27321;50.816;6.054;2022-11-20T01:54:38;23.10;;;13.50;;
41627;SDS011;27321;50.816;6.054;2022-11-20T01:58:32;21.17;;;12.23;;
41627;SDS011;27321;50.816;6.054;2022-11-20T02:02:17;20.87;;;12.10;;
41627;SDS011;27321;50.816;6.054;2022-11-20T02:09:47;20.67;;;12.33;;
41627;SDS011;27321;50.816;6.054;2022-11-20T02:13:29;20.08;;;12.02;;
41627;SDS011;27321;50.816;6.054;2022-11-20T02:28:03;20.23;;;11.80;;
41627;SDS011;27321;50.816;6.054;2022-11-20T05:05:33;30.67;;;15.40;;
41627;SDS011;27321;50.816;6.054;2022-11-20T05:09:19;27.97;;;14.90;;
41627;SDS011;27321;50.816;6.054;2022-11-20T05:13:03;27.77;;;15.23;;
41627;SDS011;27321;50.816;6.054;2022-11-20T05:17:09;29.23;;;15.80;;
41627;SDS011;27321;50.816;6.054;2022-11-20T05:20:58;30.37;;;17.27;;
41627;SDS011;27321;50.816;6.054;2022-11-20T05:24:43;32.17;;;17.53;;
41627;SDS011;27321;50.816;6.054;2022-11-20T05:28:35;28.85;;;16.58;;
41627;SDS011;27321;50.816;6.054;2022-11-20T05:32:19;30.90;;;16.97;;
41627;SDS011;27321;50.816;6.054;2022-11-20T05:36:02;33.67;;;18.10;;
41627;SDS011;27321;50.816;6.054;2022-11-20T05:39:24;34.13;;;17.67;;
41627;SDS011;27321;50.816;6.054;2022-11-20T05:43:05;33.40;;;17.40;;
41627;SDS011;27321;50.816;6.054;2022-11-20T05:46:50;33.45;;;16.95;;
41627;SDS011;27321;50.816;6.054;2022-11-20T05:50:35;34.40;;;18.40;;
41627;SDS011;27321;50.816;6.054;2022-11-20T05:54:28;27.23;;;15.37;;
41627;SDS011;27321;50.816;6.054;2022-11-20T05:58:10;29.63;;;15.63;;
41627;SDS011;27321;50.816;6.054;2022-11-20T06:02:07;25.83;;;14.37;;
41627;SDS011;27321;50.816;6.054;2022-11-20T06:05:52;26.80;;;14.23;;
41627;SDS011;27321;50.816;6.054;2022-11-20T06:09:34;27.35;;;15.52;;
41627;SDS011;27321;50.816;6.054;2022-11-20T06:13:05;23.77;;;14.23;;
41627;SDS011;27321;50.816;6.054;2022-11-20T06:16:50;27.17;;;14.40;;
41627;SDS011;27321;50.816;6.054;2022-11-20T06:20:35;24.87;;;14.10;;
41627;SDS011;27321;50.816;6.054;2022-11-20T06:24:17;27.05;;;14.23;;
41627;SDS011;27321;50.816;6.054;2022-11-20T06:28:02;24.77;;;14.87;;
41627;SDS011;27321;50.816;6.054;2022-11-20T06:31:36;24.67;;;15.07;;
41627;SDS011;27321;50.816;6.054;2022-11-20T06:35:18;24.38;;;14.02;;
41627;SDS011;27321;50.816;6.054;2022-11-20T06:38:42;22.47;;;13.77;;
41627;SDS011;27321;50.816;6.054;2022-11-20T06:42:28;24.87;;;14.13;;
41627;SDS011;27321;50.816;6.054;2022-11-20T06:46:11;22.75;;;13.60;;
41627;SDS011;27321;50.816;6.054;2022-11-20T06:50:10;22.00;;;13.57;;
41627;SDS011;27321;50.816;6.054;2022-11-20T06:53:54;23.23;;;14.13;;
41627;SDS011;27321;50.816;6.054;2022-11-20T06:57:36;22.33;;;12.57;;
41627;SDS011;27321;50.816;6.054;2022-11-20T07:01:21;21.07;;;12.70;;
41627;SDS011;27321;50.816;6.054;2022-11-20T07:05:14;21.77;;;12.03;;
41627;SDS011;27321;50.816;6.054;2022-11-20T07:12:33;18.00;;;10.80;;
41627;SDS011;27321;50.816;6.054;2022-11-20T07:15:46;18.13;;;11.47;;
41627;SDS011;27321;50.816;6.054;2022-11-20T07:19:31;20.70;;;11.93;;
41627;SDS011;27321;50.816;6.054;2022-11-20T07:23:13;21.63;;;12.07;;
41627;SDS011;27321;50.816;6.054;2022-11-20T07:26:55;22.02;;;12.52;;
41627;SDS011;27321;50.816;6.054;2022-11-20T07:30:40;20.93;;;12.47;;
41627;SDS011;27321;50.816;6.054;2022-11-20T07:34:38;17.17;;;11.13;;
41627;SDS011;27321;50.816;6.054;2022-11-20T07:38:05;17.10;;;10.37;;
41627;SDS011;27321;50.816;6.054;2022-11-20T07:42:02;23.80;;;11.80;;
41627;SDS011;27321;50.816;6.054;2022-11-20T07:45:47;19.13;;;11.13;;
41627;SDS011;27321;50.816;6.054;2022-11-20T07:49:28;18.00;;;11.13;;
41627;SDS011;27321;50.816;6.054;2022-11-20T07:53:13;20.73;;;11.93;;
41627;SDS011;27321;50.816;6.054;2022-11-20T07:56:37;21.23;;;12.03;;
41627;SDS011;27321;50.816;6.054;2022-11-20T08:00:22;20.23;;;11.73;;
41627;SDS011;27321;50.816;6.054;2022-11-20T08:04:10;22.37;;;12.67;;
41627;SDS011;27321;50.816;6.054;2022-11-20T08:08:09;20.30;;;11.73;;
41627;SDS011;27321;50.816;6.054;2022-11-20T08:12:02;19.47;;;11.93;;
41627;SDS011;27321;50.816;6.054;2022-11-20T08:15:49;20.07;;;11.23;;
41627;SDS011;27321;50.816;6.054;2022-11-20T08:19:37;21.20;;;12.10;;
41627;SDS011;27321;50.816;6.054;2022-11-20T08:23:22;23.33;;;12.57;;
41627;SDS011;27321;50.816;6.054;2022-11-20T08:27:18;21.23;;;11.80;;
41627;SDS011;27321;50.816;6.054;2022-11-20T08:31:03;16.77;;;10.97;;
41627;SDS011;27321;50.816;6.054;2022-11-20T08:34:45;19.00;;;11.00;;
41627;SDS011;27321;50.816;6.054;2022-11-20T08:38:36;18.38;;;11.35;;
41627;SDS011;27321;50.816;6.054;2022-11-20T08:42:24;18.77;;;11.87;;
41627;SDS011;27321;50.816;6.054;2022-11-20T08:46:27;18.67;;;11.27;;
41627;SDS011;27321;50.816;6.054;2022-11-20T08:50:14;20.57;;;12.00;;
41627;SDS011;27321;50.816;6.054;2022-11-20T08:54:00;19.13;;;11.80;;
41627;SDS011;27321;50.816;6.054;2022-11-20T08:57:44;20.97;;;11.90;;
41627;SDS011;27321;50.816;6.054;2022-11-20T09:01:28;21.53;;;12.53;;
41627;SDS011;27321;50.816;6.054;2022-11-20T09:05:10;21.33;;;12.10;;
41627;SDS011;27321;50.816;6.054;2022-11-20T09:08:58;21.63;;;12.03;;
41627;SDS011;27321;50.816;6.054;2022-11-20T09:12:52;24.80;;;12.90;;
41627;SDS011;27321;50.816;6.054;2022-11-20T09:16:34;22.40;;;12.37;;
41627;SDS011;27321;50.816;6.054;2022-11-20T09:20:28;22.97;;;12.07;;
41627;SDS011;27321;50.816;6.054;2022-11-20T09:24:06;23.90;;;12.83;;
41627;SDS011;27321;50.816;6.054;2022-11-20T09:27:57;24.57;;;13.80;;
41627;SDS011;27321;50.816;6.054;2022-11-20T09:31:47;24.37;;;13.03;;
41627;SDS011;27321;50.816;6.054;2022-11-20T09:35:29;28.38;;;14.80;;
41627;SDS011;27321;50.816;6.054;2022-11-20T09:39:19;26.43;;;13.37;;
41627;SDS011;27321;50.816;6.054;2022-11-20T09:47:45;25.80;;;12.93;;
41627;SDS011;27321;50.816;6.054;2022-11-20T09:54:31;24.87;;;13.37;;
41627;SDS011;27321;50.816;6.054;2022-11-20T10:00:41;24.80;;;12.60;;
41627;SDS011;27321;50.816;6.054;2022-11-20T10:04:16;24.50;;;13.47;;
41627;SDS011;27321;50.816;6.054;2022-11-20T10:21:38;26.27;;;13.33;;
41627;SDS011;27321;50.816;6.054;2022-11-20T10:25:20;24.30;;;11.97;;
41627;SDS011;27321;50.816;6.054;2022-11-20T10:32:04;23.20;;;12.77;;
41627;SDS011;27321;50.816;6.054;2022-11-20T10:35:16;24.70;;;12.60;;
41627;SDS011;27321;50.816;6.054;2022-11-20T10:38:41;25.80;;;13.27;;
41627;SDS011;27321;50.816;6.054;2022-11-20T10:42:43;22.98;;;12.10;;
41627;SDS011;27321;50.816;6.054;2022-11-20T10:46:43;21.17;;;11.93;;
41627;SDS011;27321;50.816;6.054;2022-11-20T10:50:29;20.93;;;12.00;;
41627;SDS011;27321;50.816;6.054;2022-11-20T10:58:13;21.03;;;11.03;;
41627;SDS011;27321;50.816;6.054;2022-11-20T11:02:31;17.77;;;10.77;;
41627;SDS011;27321;50.816;6.054;2022-11-20T11:05:57;22.20;;;10.80;;
41627;SDS011;27321;50.816;6.054;2022-11-20T11:09:35;20.37;;;11.20;;
41627;SDS011;27321;50.816;6.054;2022-11-20T11:13:35;18.33;;;10.60;;
41627;SDS011;27321;50.816;6.054;2022-11-20T11:17:27;21.42;;;11.73;;
41627;SDS011;27321;50.816;6.054;2022-11-20T11:21:10;18.17;;;10.87;;
41627;SDS011;27321;50.816;6.054;2022-11-20T11:24:53;17.05;;;9.60;;
41627;SDS011;27321;50.816;6.054;2022-11-20T11:28:35;14.57;;;9.07;;
41627;SDS011;27321;50.816;6.054;2022-11-20T11:32:21;15.13;;;9.35;;
41627;SDS011;27321;50.816;6.054;2022-11-20T11:36:14;15.73;;;9.27;;
41627;SDS011;27321;50.816;6.054;2022-11-20T11:40:08;15.53;;;8.70;;
41627;SDS011;27321;50.816;6.054;2022-11-20T11:43:51;17.43;;;9.17;;
41627;SDS011;27321;50.816;6.054;2022-11-20T11:47:31;13.27;;;7.73;;
41627;SDS011;27321;50.816;6.054;2022-11-20T11:51:20;15.80;;;8.20;;
41627;SDS011;27321;50.816;6.054;2022-11-20T11:55:03;12.63;;;7.53;;
41627;SDS011;27321;50.816;6.054;2022-11-20T11:58:50;13.67;;;6.87;;
41627;SDS011;27321;50.816;6.054;2022-11-20T12:05:52;10.93;;;6.70;;
41627;SDS011;27321;50.816;6.054;2022-11-20T12:09:28;14.33;;;6.00;;
41627;SDS011;27321;50.816;6.054;2022-11-20T12:13:00;12.60;;;5.37;;
41627;SDS011;27321;50.816;6.054;2022-11-20T12:16:21;8.47;;;5.30;;
41627;SDS011;27321;50.816;6.054;2022-11-20T12:19:23;8.98;;;5.13;;
41627;SDS011;27321;50.816;6.054;2022-11-20T12:30:01;6.83;;;4.60;;
41627;SDS011;27321;50.816;6.054;2022-11-20T12:40:17;5.13;;;3.90;;
41627;SDS011;27321;50.816;6.054;2022-11-20T12:44:01;4.63;;;3.53;;
41627;SDS011;27321;50.816;6.054;2022-11-20T12:57:45;4.17;;;3.00;;
41627;SDS011;27321;50.816;6.054;2022-11-20T13:00:56;3.77;;;2.70;;
41627;SDS011;27321;50.816;6.054;2022-11-20T13:08:33;3.60;;;2.23;;
41627;SDS011;27321;50.816;6.054;2022-11-20T13:11:39;3.23;;;2.47;;
41627;SDS011;27321;50.816;6.054;2022-11-20T13:15:15;3.13;;;2.10;;
41627;SDS011;27321;50.816;6.054;2022-11-20T13:19:26;4.07;;;2.43;;
41627;SDS011;27321;50.816;6.054;2022-11-20T13:23:06;4.40;;;2.33;;
41627;SDS011;27321;50.816;6.054;2022-11-20T13:26:58;3.63;;;2.10;;
41627;SDS011;27321;50.816;6.054;2022-11-20T13:30:55;2.43;;;1.93;;
41627;SDS011;27321;50.816;6.054;2022-11-20T13:34:38;2.63;;;1.80;;
41627;SDS011;27321;50.816;6.054;2022-11-20T13:38:20;1.83;;;1.48;;
41627;SDS011;27321;50.816;6.054;2022-11-20T13:42:27;2.40;;;1.67;;
41627;SDS011;27321;50.816;6.054;2022-11-20T13:46:09;3.50;;;2.10;;
41627;SDS011;27321;50.816;6.054;2022-11-20T13:49:58;2.70;;;1.47;;
41627;SDS011;27321;50.816;6.054;2022-11-20T14:02:02;3.23;;;1.10;;
41627;SDS011;27321;50.816;6.054;2022-11-20T14:05:50;3.45;;;1.38;;
41627;SDS011;27321;50.816;6.054;2022-11-20T14:09:37;3.67;;;1.27;;
41627;SDS011;27321;50.816;6.054;2022-11-20T14:13:18;2.77;;;1.30;;
41627;SDS011;27321;50.816;6.054;2022-11-20T14:17:35;1.63;;;0.70;;
41627;SDS011;27321;50.816;6.054;2022-11-20T14:21:09;1.20;;;0.67;;
41627;SDS011;27321;50.816;6.054;2022-11-20T14:28:56;0.53;;;0.50;;
41627;SDS011;27321;50.816;6.054;2022-11-20T14:32:42;1.27;;;0.60;;
41627;SDS011;27321;50.816;6.054;2022-11-20T14:36:25;0.87;;;0.83;;
41627;SDS011;27321;50.816;6.054;2022-11-20T14:40:22;2.47;;;1.10;;
41627;SDS011;27321;50.816;6.054;2022-11-20T14:43:27;3.53;;;1.20;;
41627;SDS011;27321;50.816;6.054;2022-11-20T14:47:10;2.20;;;0.97;;
41627;SDS011;27321;50.816;6.054;2022-11-20T14:50:54;4.10;;;1.10;;
41627;SDS011;27321;50.816;6.054;2022-11-20T14:54:49;2.38;;;1.10;;
41627;SDS011;27321;50.816;6.054;2022-11-20T14:58:41;2.97;;;1.50;;
41627;SDS011;27321;50.816;6.054;2022-11-20T15:02:23;3.38;;;1.17;;
41627;SDS011;27321;50.816;6.054;2022-11-20T15:26:07;2.20;;;1.33;;
41627;SDS011;27321;50.816;6.054;2022-11-20T15:29:11;5.30;;;1.57;;
41627;SDS011;27321;50.816;6.054;2022-11-20T15:32:18;2.13;;;1.30;;
41627;SDS011;27321;50.816;6.054;2022-11-20T15:35:19;1.57;;;1.17;;
41627;SDS011;27321;50.816;6.054;2022-11-20T15:38:20;2.10;;;1.17;;
41627;SDS011;27321;50.816;6.054;2022-11-20T15:41:21;3.50;;;1.20;;
41627;SDS011;27321;50.816;6.054;2022-11-20T15:44:22;4.33;;;1.17;;
41627;SDS011;27321;50.816;6.054;2022-11-20T15:47:28;1.80;;;1.30;;
41627;SDS011;27321;50.816;6.054;2022-11-20T15:50:38;1.30;;;1.20;;
41627;SDS011;27321;50.816;6.054;2022-11-20T15:53:47;1.50;;;1.20;;
41627;SDS011;27321;50.816;6.054;2022-11-20T15:56:48;3.27;;;1.70;;
41627;SDS011;27321;50.816;6.054;2022-11-20T15:59:52;2.90;;;1.83;;
41627;SDS011;27321;50.816;6.054;2022-11-20T16:02:53;1.50;;;1.40;;
41627;SDS011;27321;50.816;6.054;2022-11-20T16:05:54;1.98;;;1.60;;
41627;SDS011;27321;50.816;6.054;2022-11-20T16:08:55;1.60;;;1.27;;
41627;SDS011;27321;50.816;6.054;2022-11-20T16:11:56;1.53;;;0.87;;
41627;SDS011;27321;50.816;6.054;2022-11-20T16:15:05;1.23;;;0.93;;
41627;SDS011;27321;50.816;6.054;2022-11-20T16:18:26;1.20;;;0.90;;
41627;SDS011;27321;50.816;6.054;2022-11-20T16:21:27;1.13;;;0.70;;
41627;SDS011;27321;50.816;6.054;2022-11-20T16:24:32;2.63;;;0.90;;
41627;SDS011;27321;50.816;6.054;2022-11-20T16:27:33;0.63;;;0.63;;
41627;SDS011;27321;50.816;6.054;2022-11-20T16:30:34;1.02;;;0.70;;
41627;SDS011;27321;50.816;6.054;2022-11-20T16:33:36;1.05;;;0.57;;
41627;SDS011;27321;50.816;6.054;2022-11-20T16:36:38;0.50;;;0.50;;
41627;SDS011;27321;50.816;6.054;2022-11-20T16:39:41;1.03;;;0.70;;
41627;SDS011;27321;50.816;6.054;2022-11-20T16:42:42;0.93;;;0.70;;
41627;SDS011;27321;50.816;6.054;2022-11-20T16:45:44;1.65;;;0.82;;
41627;SDS011;27321;50.816;6.054;2022-11-20T16:48:48;1.20;;;0.60;;
41627;SDS011;27321;50.816;6.054;2022-11-20T16:51:54;0.53;;;0.53;;
41627;SDS011;27321;50.816;6.054;2022-11-20T16:54:56;1.40;;;0.50;;
41627;SDS011;27321;50.816;6.054;2022-11-20T16:57:57;1.77;;;0.80;;
41627;SDS011;27321;50.816;6.054;2022-11-20T17:01:04;1.55;;;0.70;;
41627;SDS011;27321;50.816;6.054;2022-11-20T17:04:09;2.07;;;0.80;;
41627;SDS011;27321;50.816;6.054;2022-11-20T17:07:10;3.00;;;1.10;;
41627;SDS011;27321;50.816;6.054;2022-11-20T17:10:11;2.03;;;1.10;;
41627;SDS011;27321;50.816;6.054;2022-11-20T17:13:12;1.27;;;1.00;;
41627;SDS011;27321;50.816;6.054;2022-11-20T17:16:14;3.20;;;1.07;;
41627;SDS011;27321;50.816;6.054;2022-11-20T17:19:18;2.30;;;1.30;;
41627;SDS011;27321;50.816;6.054;2022-11-20T17:22:19;1.37;;;1.07;;
41627;SDS011;27321;50.816;6.054;2022-11-20T17:25:20;1.23;;;1.13;;
41627;SDS011;27321;50.816;6.054;2022-11-20T17:28:21;1.50;;;1.40;;
41627;SDS011;27321;50.816;6.054;2022-11-20T17:31:22;3.50;;;1.43;;
41627;SDS011;27321;50.816;6.054;2022-11-20T17:34:23;3.47;;;1.50;;
41627;SDS011;27321;50.816;6.054;2022-11-20T17:37:24;4.20;;;1.90;;
41627;SDS011;27321;50.816;6.054;2022-11-20T17:40:25;3.30;;;2.03;;
41627;SDS011;27321;50.816;6.054;2022-11-20T17:43:26;2.67;;;1.88;;
41627;SDS011;27321;50.816;6.054;2022-11-20T17:46:28;4.97;;;1.73;;
41627;SDS011;27321;50.816;6.054;2022-11-20T17:49:34;6.03;;;2.00;;
41627;SDS011;27321;50.816;6.054;2022-11-20T17:52:35;4.80;;;1.90;;
41627;SDS011;27321;50.816;6.054;2022-11-20T17:55:36;8.02;;;2.50;;
41627;SDS011;27321;50.816;6.054;2022-11-20T17:58:55;6.43;;;2.37;;
41627;SDS011;27321;50.816;6.054;2022-11-20T18:01:56;5.57;;;2.00;;
41627;SDS011;27321;50.816;6.054;2022-11-20T18:04:57;7.20;;;2.00;;
41627;SDS011;27321;50.816;6.054;2022-11-20T18:07:58;6.27;;;2.40;;
41627;SDS011;27321;50.816;6.054;2022-11-20T18:10:59;6.27;;;2.13;;
41627;SDS011;27321;50.816;6.054;2022-11-20T18:14:01;6.43;;;2.20;;
41627;SDS011;27321;50.816;6.054;2022-11-20T18:17:23;2.83;;;1.80;;
41627;SDS011;27321;50.816;6.054;2022-11-20T18:20:27;5.00;;;2.23;;
41627;SDS011;27321;50.816;6.054;2022-11-20T18:23:28;7.23;;;2.57;;
41627;SDS011;27321;50.816;6.054;2022-11-20T18:26:33;7.30;;;2.50;;
41627;SDS011;27321;50.816;6.054;2022-11-20T18:29:34;8.73;;;2.85;;
41627;SDS011;27321;50.816;6.054;2022-11-20T18:32:35;6.57;;;2.60;;
41627;SDS011;27321;50.816;6.054;2022-11-20T18:35:36;6.00;;;2.63;;
41627;SDS011;27321;50.816;6.054;2022-11-20T18:38:42;7.17;;;2.70;;
41627;SDS011;27321;50.816;6.054;2022-11-20T18:41:45;9.30;;;2.53;;
41627;SDS011;27321;50.816;6.054;2022-11-20T18:45:04;5.47;;;2.20;;
41627;SDS011;27321;50.816;6.054;2022-11-20T18:48:06;5.50;;;2.17;;
41627;SDS011;27321;50.816;6.054;2022-11-20T18:51:07;7.15;;;2.35;;
41627;SDS011;27321;50.816;6.054;2022-11-20T18:54:11;7.30;;;2.43;;
41627;SDS011;27321;50.816;6.054;2022-11-20T19:00:16;7.43;;;2.53;;
41627;SDS011;27321;50.816;6.054;2022-11-20T19:03:17;7.53;;;2.05;;
41627;SDS011;27321;50.816;6.054;2022-11-20T19:06:18;10.30;;;2.90;;
41627;SDS011;27321;50.816;6.054;2022-11-20T19:09:20;2.95;;;1.83;;
41627;SDS011;27321;50.816;6.054;2022-11-20T19:12:22;10.43;;;2.80;;
41627;SDS011;27321;50.816;6.054;2022-11-20T19:15:23;7.30;;;2.28;;
41627;SDS011;27321;50.816;6.054;2022-11-20T19:18:24;8.80;;;2.70;;
41627;SDS011;27321;50.816;6.054;2022-11-20T19:21:25;6.97;;;2.20;;
41627;SDS011;27321;50.816;6.054;2022-11-20T19:24:27;4.80;;;1.90;;
41627;SDS011;27321;50.816;6.054;2022-11-20T19:27:28;10.93;;;2.28;;
41627;SDS011;27321;50.816;6.054;2022-11-20T19:30:29;3.92;;;1.50;;
41627;SDS011;27321;50.816;6.054;2022-11-20T19:33:30;5.63;;;1.80;;
41627;SDS011;27321;50.816;6.054;2022-11-20T19:36:32;4.50;;;1.70;;
41627;SDS011;27321;50.816;6.054;2022-11-20T19:39:37;4.50;;;1.53;;
41627;SDS011;27321;50.816;6.054;2022-11-20T19:42:38;3.23;;;1.23;;
41627;SDS011;27321;50.816;6.054;2022-11-20T19:45:39;4.53;;;1.20;;
41627;SDS011;27321;50.816;6.054;2022-11-20T19:48:40;7.37;;;1.07;;
41627;SDS011;27321;50.816;6.054;2022-11-20T19:51:45;3.83;;;1.20;;
41627;SDS011;27321;50.816;6.054;2022-11-20T19:54:47;6.83;;;1.30;;
41627;SDS011;27321;50.816;6.054;2022-11-20T19:57:48;5.83;;;1.30;;
41627;SDS011;27321;50.816;6.054;2022-11-20T20:00:50;6.03;;;1.23;;
41627;SDS011;27321;50.816;6.054;2022-11-20T20:03:51;2.95;;;1.13;;
41627;SDS011;27321;50.816;6.054;2022-11-20T20:06:53;3.90;;;1.00;;
41627;SDS011;27321;50.816;6.054;2022-11-20T20:09:54;2.33;;;1.13;;
41627;SDS011;27321;50.816;6.054;2022-11-20T20:12:55;5.30;;;1.23;;
41627;SDS011;27321;50.816;6.054;2022-11-20T20:15:56;3.85;;;1.20;;
41627;SDS011;27321;50.816;6.054;2022-11-20T20:18:58;5.30;;;1.23;;
41627;SDS011;27321;50.816;6.054;2022-11-20T20:22:01;3.07;;;1.10;;
41627;SDS011;27321;50.816;6.054;2022-11-20T20:25:02;4.30;;;1.40;;
41627;SDS011;27321;50.816;6.054;2022-11-20T20:31:09;6.87;;;1.30;;
41627;SDS011;27321;50.816;6.054;2022-11-20T20:34:16;5.13;;;1.20;;
41627;SDS011;27321;50.816;6.054;2022-11-20T20:37:17;4.70;;;1.73;;
41627;SDS011;27321;50.816;6.054;2022-11-20T20:40:18;4.10;;;1.40;;
41627;SDS011;27321;50.816;6.054;2022-11-20T20:43:19;7.90;;;2.30;;
41627;SDS011;27321;50.816;6.054;2022-11-20T20:46:20;10.07;;;2.37;;
41627;SDS011;27321;50.816;6.054;2022-11-20T20:49:22;6.93;;;1.70;;
41627;SDS011;27321;50.816;6.054;2022-11-20T20:52:24;4.47;;;1.75;;
41627;SDS011;27321;50.816;6.054;2022-11-20T20:55:30;7.40;;;2.03;;
41627;SDS011;27321;50.816;6.054;2022-11-20T20:58:33;8.53;;;2.10;;
41627;SDS011;27321;50.816;6.054;2022-11-20T21:01:34;4.38;;;1.70;;
41627;SDS011;27321;50.816;6.054;2022-11-20T21:04:36;6.93;;;1.73;;
41627;SDS011;27321;50.816;6.054;2022-11-20T21:07:38;8.37;;;2.13;;
41627;SDS011;27321;50.816;6.054;2022-11-20T21:11:01;10.27;;;2.13;;
41627;SDS011;27321;50.816;6.054;2022-11-20T21:14:06;6.87;;;2.03;;
41627;SDS011;27321;50.816;6.054;2022-11-20T21:17:07;6.13;;;2.22;;
41627;SDS011;27321;50.816;6.054;2022-11-20T21:20:11;5.10;;;2.13;;
41627;SDS011;27321;50.816;6.054;2022-11-20T21:23:31;7.17;;;2.10;;
41627;SDS011;27321;50.816;6.054;2022-11-20T21:26:33;6.90;;;2.00;;
41627;SDS011;27321;50.816;6.054;2022-11-20T21:29:34;7.37;;;2.23;;
41627;SDS011;27321;50.816;6.054;2022-11-20T21:32:35;7.40;;;2.30;;
41627;SDS011;27321;50.816;6.054;2022-11-20T21:35:37;8.88;;;2.75;;
41627;SDS011;27321;50.816;6.054;2022-11-20T21:38:39;11.70;;;2.37;;
41627;SDS011;27321;50.816;6.054;2022-11-20T21:41:40;11.48;;;2.83;;
41627;SDS011;27321;50.816;6.054;2022-11-20T21:44:41;10.35;;;3.17;;
41627;SDS011;27321;50.816;6.054;2022-11-20T21:47:42;12.90;;;3.50;;
41627;SDS011;27321;50.816;6.054;2022-11-20T21:50:44;8.73;;;2.97;;
41627;SDS011;27321;50.816;6.054;2022-11-20T21:53:45;11.73;;;3.27;;
41627;SDS011;27321;50.816;6.054;2022-11-20T21:56:47;8.23;;;2.73;;
41627;SDS011;27321;50.816;6.054;2022-11-20T21:59:48;8.40;;;3.10;;
41627;SDS011;27321;50.816;6.054;2022-11-20T22:02:49;11.80;;;2.80;;
41627;SDS011;27321;50.816;6.054;2022-11-20T22:05:54;10.10;;;3.47;;
41627;SDS011;27321;50.816;6.054;2022-11-20T22:08:56;11.77;;;2.73;;
41627;SDS011;27321;50.816;6.054;2022-11-20T22:11:57;9.95;;;3.03;;
41627;SDS011;27321;50.816;6.054;2022-11-20T22:14:59;10.93;;;3.28;;
41627;SDS011;27321;50.816;6.054;2022-11-20T22:21:14;9.87;;;2.50;;
41627;SDS011;27321;50.816;6.054;2022-11-20T22:24:18;11.20;;;2.90;;
41627;SDS011;27321;50.816;6.054;2022-11-20T22:27:20;12.93;;;3.27;;
41627;SDS011;27321;50.816;6.054;2022-11-20T22:30:24;13.23;;;2.90;;
41627;SDS011;27321;50.816;6.054;2022-11-20T22:33:29;10.77;;;2.87;;
41627;SDS011;27321;50.816;6.054;2022-11-20T22:36:31;12.47;;;3.33;;
41627;SDS011;27321;50.816;6.054;2022-11-20T22:39:36;6.73;;;2.30;;
41627;SDS011;27321;50.816;6.054;2022-11-20T22:42:37;8.23;;;3.00;;
41627;SDS011;27321;50.816;6.054;2022-11-20T22:45:38;11.33;;;2.93;;
41627;SDS011;27321;50.816;6.054;2022-11-20T22:48:40;12.80;;;2.93;;
41627;SDS011;27321;50.816;6.054;2022-11-20T22:51:51;11.10;;;3.07;;
41627;SDS011;27321;50.816;6.054;2022-11-20T22:54:52;10.53;;;2.90;;
41627;SDS011;27321;50.816;6.054;2022-11-20T22:57:53;18.23;;;3.60;;
41627;SDS011;27321;50.816;6.054;2022-11-20T23:01:04;11.02;;;3.33;;
41627;SDS011;27321;50.816;6.054;2022-11-20T23:04:19;11.80;;;2.90;;
41627;SDS011;27321;50.816;6.054;2022-11-20T23:07:20;9.87;;;3.10;;
41627;SDS011;27321;50.816;6.054;2022-11-20T23:10:21;10.43;;;3.23;;
41627;SDS011;27321;50.816;6.054;2022-11-20T23:13:22;12.43;;;3.47;;
41627;SDS011;27321;50.816;6.054;2022-11-20T23:16:23;9.70;;;3.20;;
41627;SDS011;27321;50.816;6.054;2022-11-20T23:19:26;14.73;;;3.80;;
41627;SDS011;27321;50.816;6.054;2022-11-20T23:22:27;12.23;;;3.20;;
41627;SDS011;27321;50.816;6.054;2022-11-20T23:25:28;10.05;;;2.78;;
41627;SDS011;27321;50.816;6.054;2022-11-20T23:28:29;11.40;;;2.73;;
41627;SDS011;27321;50.816;6.054;2022-11-20T23:31:33;15.13;;;3.53;;
41627;SDS011;27321;50.816;6.054;2022-11-20T23:34:34;12.47;;;2.87;;
41627;SDS011;27321;50.816;6.054;2022-11-20T23:37:35;15.70;;;3.40;;
41627;SDS011;27321;50.816;6.054;2022-11-20T23:40:36;13.27;;;3.33;;
41627;SDS011;27321;50.816;6.054;2022-11-20T23:43:37;8.60;;;2.73;;
41627;SDS011;27321;50.816;6.054;2022-11-20T23:46:38;10.95;;;3.72;;
41627;SDS011;27321;50.816;6.054;2022-11-20T23:49:39;10.87;;;2.97;;
41627;SDS011;27321;50.816;6.054;2022-11-20T23:52:40;8.57;;;2.97;;
41627;SDS011;27321;50.816;6.054;2022-11-20T23:55:45;13.67;;;3.43;;
41627;SDS011;27321;50.816;6.054;2022-11-20T23:58:54;7.30;;;2.63;;
